Ana Sayfa
METAR-TAF:

METAR-TAF

Havaalanları :

Bağdat Uluslararası Havaalanı

Bağdat, Irak

Enlem: 33-15-45N, Boylam: 44-14-04E, yükseklik: 35 m

Güncel hava durumu gözlemi

Rapor saat 09:00 UTC de 30 dakika önce yapıldı.
Rüzgar kuzey/kuzeybatıdan 14 kt
Sıcaklık 37°C
Nem 16%
Basınç 1010 hPa
Görüş mesafesi 10 km veya daha fazla
1500 m altında bulut yok ve kümülonimbus yok

METAR: ORBI 230900Z 34014KT CAVOK 37/07 Q1010 NOSIG

Saat: 12:30 (09:30 UTC)

Tahmin

Rapor saat 04:00 UTC de 5 saat ve 30 dakika önce yapıldı.
Ayın 23'si saat 06 UTC'den ayın 24'si saat 06 UTC'ye kadar geçerli Tahmin
Rüzgar kuzeybatıdan 12 kt
Görüş mesafesi: 8000 m

TAF: ORBI 230400Z 2306/2406 32012KT 8000 NSC

4.000'den fazla havaalanı için hava durumu gözlemleri ve tahminleri (METAR ve TAF raporları).

Kullanılabilir istasyonlar harita üzerinde sarı ve kırmızı noktalarla gösterilir.

İstasyonun adını görmek için fareyi noktanın üzerinde gezdirin.

Sonrasında hava gözlem ve tahminlerini görmek için tıklayın.

Haritayı değiştirmek için: yaklaştırmak için siyah artı işaretli yeşil düğmeye ve uzaklaştırmak için de eksi işaretli düğmeye hızla tıklayın; bitişik haritalar için yeşil okları kullanın.


METAR-TAF: